createdAt,value
2023-05-17T00:02:52.360Z,16.60
2023-05-17T00:07:55.132Z,10.50
2023-05-17T00:12:57.888Z,10.50
2023-05-17T00:18:01.149Z,17.10
2023-05-17T00:23:04.339Z,13.70
2023-05-17T00:28:07.160Z,12.00
2023-05-17T00:33:10.029Z,17.10
2023-05-17T00:38:12.874Z,11.40
2023-05-17T00:43:15.817Z,20.40
2023-05-17T00:48:25.463Z,16.50
2023-05-17T00:53:29.760Z,13.30
2023-05-17T00:58:34.007Z,19.30
2023-05-17T01:03:37.020Z,16.70
2023-05-17T01:13:49.689Z,15.50
2023-05-17T01:19:34.471Z,24.90
2023-05-17T01:24:53.678Z,13.60
2023-05-17T01:29:57.661Z,13.40
2023-05-17T01:35:00.449Z,13.80
2023-05-17T01:40:04.784Z,11.10
2023-05-17T01:45:13.759Z,13.90
2023-05-17T01:50:19.592Z,9.80
2023-05-17T01:55:43.756Z,10.80
2023-05-17T02:00:49.338Z,10.80
2023-05-17T02:05:52.226Z,11.30
2023-05-17T02:10:55.057Z,12.70
2023-05-17T02:16:01.667Z,10.20
2023-05-17T02:21:04.750Z,10.20
2023-05-17T02:31:10.295Z,12.50
2023-05-17T02:36:13.018Z,15.80
2023-05-17T02:41:15.741Z,13.20
2023-05-17T02:46:18.581Z,14.90
2023-05-17T02:51:21.364Z,11.40
2023-05-17T02:56:24.120Z,13.50
2023-05-17T03:01:27.966Z,13.10
2023-05-17T03:06:31.599Z,12.20
2023-05-17T03:11:34.413Z,12.50
2023-05-17T03:16:37.166Z,16.90
2023-05-17T03:21:40.338Z,11.40
2023-05-17T03:26:43.097Z,10.30
2023-05-17T03:31:46.092Z,15.60
2023-05-17T03:36:48.805Z,14.20
2023-05-17T03:41:51.671Z,11.10
2023-05-17T03:46:54.452Z,15.40
2023-05-17T03:51:57.235Z,11.50
2023-05-17T03:57:00.050Z,10.70
2023-05-17T04:02:02.817Z,13.40
2023-05-17T04:07:05.590Z,19.10
2023-05-17T04:12:10.762Z,18.10
2023-05-17T04:17:15.011Z,14.60
2023-05-17T04:22:21.165Z,12.20
2023-05-17T04:27:23.907Z,13.40
2023-05-17T04:32:28.198Z,17.20
2023-05-17T04:37:31.005Z,12.50
2023-05-17T04:42:33.864Z,12.40
2023-05-17T04:47:37.571Z,10.70
2023-05-17T04:52:41.825Z,11.90
2023-05-17T04:57:44.953Z,9.00
2023-05-17T05:07:51.500Z,18.10
2023-05-17T05:12:55.205Z,10.00
2023-05-17T05:17:58.211Z,9.30
2023-05-17T05:23:03.997Z,12.00
2023-05-17T05:28:07.209Z,12.70
2023-05-17T05:33:10.195Z,18.10
2023-05-17T05:38:13.066Z,10.90
2023-05-17T05:43:16.259Z,13.50
2023-05-17T05:48:19.161Z,13.70
2023-05-17T05:53:22.178Z,15.70
2023-05-17T06:03:27.847Z,6.70
2023-05-17T06:13:33.237Z,10.50
2023-05-17T06:18:36.733Z,14.90
2023-05-17T06:23:39.628Z,12.70
2023-05-17T06:28:42.506Z,9.30
2023-05-17T06:38:48.065Z,13.90
2023-05-17T06:48:53.724Z,14.10
2023-05-17T06:58:59.782Z,11.40
2023-05-17T07:04:02.763Z,15.70
2023-05-17T07:09:06.260Z,12.30
2023-05-17T07:14:08.998Z,11.90
2023-05-17T07:19:12.493Z,18.10
2023-05-17T07:24:15.450Z,16.00
2023-05-17T07:34:23.936Z,11.10
2023-05-17T07:44:29.473Z,16.00
2023-05-17T07:54:35.254Z,12.00
2023-05-17T08:04:41.985Z,21.60
2023-05-17T08:09:45.587Z,13.40
2023-05-17T08:14:48.382Z,10.20
2023-05-17T08:30:05.422Z,8.90
2023-05-17T08:35:14.116Z,10.80
2023-05-17T08:40:21.088Z,14.20
2023-05-17T08:45:26.536Z,9.80
2023-05-17T08:50:30.931Z,7.50
2023-05-17T08:55:34.304Z,8.70
2023-05-17T09:00:37.279Z,8.30
2023-05-17T09:05:40.105Z,9.80
2023-05-17T09:10:43.182Z,10.40
2023-05-17T09:15:48.264Z,8.60
2023-05-17T09:20:51.835Z,8.50
2023-05-17T09:25:54.645Z,10.30
2023-05-17T09:30:57.551Z,6.90
2023-05-17T09:36:02.266Z,8.20
2023-05-17T09:41:06.796Z,9.80
2023-05-17T09:46:09.517Z,10.90
2023-05-17T09:51:12.478Z,10.10
2023-05-17T09:56:15.250Z,12.20
2023-05-17T10:01:18.360Z,12.30
2023-05-17T10:06:39.248Z,9.60
2023-05-17T10:11:49.046Z,16.00
2023-05-17T10:16:52.413Z,10.60
2023-05-17T10:22:00.330Z,17.20
2023-05-17T10:27:11.855Z,9.90
2023-05-17T10:32:14.795Z,10.70
2023-05-17T10:37:19.377Z,12.90
2023-05-17T10:42:22.748Z,15.30
2023-05-17T10:47:33.195Z,12.00
2023-05-17T10:52:39.342Z,13.50
2023-05-17T10:57:50.946Z,12.20
2023-05-17T11:03:11.596Z,12.80
2023-05-17T11:08:17.309Z,14.00
2023-05-17T11:13:27.455Z,13.70
2023-05-17T11:18:49.520Z,11.30
2023-05-17T11:23:58.537Z,9.00
2023-05-17T11:29:05.231Z,14.10
2023-05-17T11:34:08.663Z,13.70
2023-05-17T11:39:13.640Z,10.20
2023-05-17T11:44:25.282Z,19.80
2023-05-17T11:49:35.720Z,13.50
2023-05-17T11:54:40.719Z,18.50
2023-05-17T11:59:44.253Z,13.50
2023-05-17T12:04:47.122Z,19.30
2023-05-17T12:09:50.272Z,15.40
2023-05-17T12:14:53.144Z,17.20
2023-05-17T12:19:56.121Z,13.70
2023-05-17T12:24:59.673Z,18.90
2023-05-17T12:30:15.422Z,17.80
2023-05-17T12:35:18.317Z,17.60
2023-05-17T12:40:22.032Z,17.30
2023-05-17T12:45:24.823Z,20.10
2023-05-17T12:50:31.663Z,17.60
2023-05-17T12:55:38.424Z,21.50
2023-05-17T13:00:41.456Z,23.10
2023-05-17T13:05:45.449Z,19.60
2023-05-17T13:10:48.347Z,19.20
2023-05-17T13:15:51.145Z,18.10
2023-05-17T13:20:58.792Z,20.30
2023-05-17T13:26:01.593Z,16.40
2023-05-17T13:31:04.455Z,15.70
2023-05-17T13:36:07.368Z,10.50
2023-05-17T13:41:10.402Z,12.80
2023-05-17T13:46:13.160Z,16.20
2023-05-17T13:51:15.937Z,11.90
2023-05-17T13:56:18.869Z,15.10
2023-05-17T14:01:22.026Z,17.80
2023-05-17T14:06:25.358Z,13.50
2023-05-17T14:11:28.240Z,8.00
2023-05-17T14:16:31.362Z,16.40
2023-05-17T14:21:34.142Z,14.30
2023-05-17T14:26:37.244Z,17.10
2023-05-17T14:31:40.029Z,15.80
2023-05-17T14:36:42.833Z,16.00
2023-05-17T14:41:45.600Z,16.40
2023-05-17T14:46:48.471Z,14.10
2023-05-17T14:51:51.854Z,11.90
2023-05-17T14:56:54.577Z,12.70
2023-05-17T15:07:02.696Z,18.40
2023-05-17T15:12:06.414Z,25.90
2023-05-17T15:17:09.613Z,23.30
2023-05-17T15:22:12.447Z,22.80
2023-05-17T15:27:16.614Z,16.00
2023-05-17T15:32:19.357Z,23.60
2023-05-17T15:37:23.124Z,19.20
2023-05-17T15:42:26.127Z,22.70
2023-05-17T15:47:41.967Z,16.00
2023-05-17T15:52:48.836Z,23.70
2023-05-17T15:57:51.598Z,17.80
2023-05-17T16:07:57.109Z,26.60
2023-05-17T16:12:59.850Z,17.70
2023-05-17T16:18:02.612Z,17.00
2023-05-17T16:23:06.197Z,20.00
2023-05-17T16:28:09.148Z,20.90
2023-05-17T16:38:17.458Z,22.20
2023-05-17T16:43:20.201Z,19.00
2023-05-17T16:48:22.994Z,15.20
2023-05-17T16:53:28.286Z,19.80
2023-05-17T16:58:31.132Z,22.80
2023-05-17T17:03:34.000Z,19.40
2023-05-17T17:13:39.785Z,30.90
2023-05-17T17:18:42.854Z,24.10
2023-05-17T17:33:51.849Z,19.00
2023-05-17T17:38:54.704Z,15.90
2023-05-17T17:43:57.472Z,25.00
2023-05-17T17:49:00.256Z,16.00
2023-05-17T17:54:05.548Z,11.20
2023-05-17T17:59:08.327Z,19.20
2023-05-17T18:04:13.594Z,17.90
2023-05-17T18:09:16.658Z,16.30
2023-05-17T18:14:19.611Z,24.30
2023-05-17T18:19:22.480Z,48.30
2023-05-17T18:24:25.545Z,37.70
2023-05-17T18:29:28.406Z,77.60
2023-05-17T18:34:31.223Z,44.20
2023-05-17T18:39:34.657Z,31.90
2023-05-17T18:44:37.473Z,17.60
2023-05-17T18:49:46.563Z,12.70
2023-05-17T18:54:49.397Z,24.50
2023-05-17T18:59:52.122Z,27.50
2023-05-17T19:04:54.926Z,24.70
2023-05-17T19:09:57.653Z,22.60
2023-05-17T19:15:00.440Z,20.90
2023-05-17T19:20:04.456Z,23.80
2023-05-17T19:25:07.751Z,28.10
2023-05-17T19:30:10.873Z,23.10
2023-05-17T19:40:19.008Z,20.30
2023-05-17T19:45:21.914Z,48.90
2023-05-17T19:50:25.541Z,60.60
2023-05-17T19:55:30.357Z,28.90
2023-05-17T20:00:33.144Z,19.20
2023-05-17T20:05:35.922Z,18.20
2023-05-17T20:10:38.727Z,24.80
2023-05-17T20:15:41.512Z,29.20
2023-05-17T20:20:44.303Z,28.00
2023-05-17T20:25:47.366Z,21.20
2023-05-17T20:30:50.250Z,18.50
2023-05-17T20:35:53.799Z,19.20
2023-05-17T20:40:58.378Z,12.80
2023-05-17T20:46:01.541Z,23.70
2023-05-17T20:51:04.626Z,13.30
2023-05-17T20:56:07.574Z,14.10
2023-05-17T21:01:10.808Z,12.80
2023-05-17T21:11:21.150Z,12.10
2023-05-17T21:16:23.957Z,13.00
2023-05-17T21:21:26.812Z,18.80
2023-05-17T21:26:29.705Z,16.00
2023-05-17T21:31:32.536Z,14.80
2023-05-17T21:36:35.462Z,10.20
2023-05-17T21:41:38.261Z,15.30
2023-05-17T21:46:41.200Z,9.20
2023-05-17T21:51:44.062Z,13.30
2023-05-17T21:56:46.829Z,23.30
2023-05-17T22:01:49.748Z,19.10
2023-05-17T22:06:53.350Z,18.80
2023-05-17T22:11:58.793Z,14.80
2023-05-17T22:17:01.647Z,13.90
2023-05-17T22:22:04.556Z,13.60
2023-05-17T22:27:07.313Z,13.00
2023-05-17T22:32:10.571Z,18.40
2023-05-17T22:42:16.160Z,13.80
2023-05-17T22:47:22.876Z,17.60
2023-05-17T22:52:26.418Z,20.00
2023-05-17T23:02:32.756Z,12.90
2023-05-17T23:07:38.737Z,13.60
2023-05-17T23:12:42.210Z,11.80
2023-05-17T23:17:46.002Z,16.40
2023-05-17T23:22:48.862Z,11.30
2023-05-17T23:27:51.610Z,11.30
2023-05-17T23:32:55.418Z,13.20
2023-05-17T23:37:58.219Z,15.00
2023-05-17T23:43:01.390Z,14.00
2023-05-17T23:53:09.850Z,14.10
2023-05-17T23:58:12.928Z,8.20
